Accueil
METAR-TAF:

METAR-TAF

Aéroports :

Amsterdam, Pays-Bas

Aéroport d'Amsterdam-Schiphol

latitude: 52-18N, longitude: 004-46E, altitude: -4 m

Observation

Le bulletin a été fait il y a 37 minutes, à 02:55 UTC
Vent 9 kt de est/nord-est
Température 6°C
Humidité 81%
Pression 1025 hPa
Visibilité 10 km ou plus
pas de nuages en-dessous de 1500 mètres et pas de cumulonimbus.

METAR: EHAM 260255Z 06009KT CAVOK 06/03 Q1025 NOSIG

Heure: 05:32 (03:32 UTC)

Prévision

Le bulletin a été fait il y a 4 heures et 18 minutes, à 23:14 UTC
Prévision valable du 26 à 00 UTC au 27 à 06 UTC
Vent 9 kt de est/nord-est
Visibilité 10 km ou plus
pas de nuages en-dessous de 1500 mètres et pas de cumulonimbus.
Probabilité 30%
du 27 à 00 UTC au 27 à 06 UTC
Vent 3 kt de direction variable
Visibilité: 2500 m
bancs de brouillard

TAF: EHAM 252314Z 2600/2706 06009KT CAVOK PROB30 2700/2706 VRB03KT 2500 BCFG

Observations et prévisions météorologiques de plus de 4000 aéroports (messages METAR et TAF).

Les stations disponibles sont représentées par des disques jaunes et rouges sur la carte.

Passer la souris dessus pour voir le nom de la station.

Cliquer dessus pour voir les observations et prévisions météorologiques.

Pour changer de carte: cliquez sur les boutons verts avec une croix noire pour zoomer, sur le bouton vert avec un tiret pour effectuer un zoom arrière, ou sur les flèches vertes pour les cartes adjacentes.


METAR-TAF: